sensor_id;sensor_type;location;lat;lon;timestamp;P1;durP1;ratioP1;P2;durP2;ratioP2
12350;SDS011;6240;51.538;7.696;2022-08-01T00:02:16;14.18;;;11.65;;
12350;SDS011;6240;51.538;7.696;2022-08-01T00:04:43;12.63;;;11.30;;
12350;SDS011;6240;51.538;7.696;2022-08-01T00:07:11;12.10;;;10.50;;
12350;SDS011;6240;51.538;7.696;2022-08-01T00:09:39;13.77;;;11.35;;
12350;SDS011;6240;51.538;7.696;2022-08-01T00:12:06;15.63;;;10.98;;
12350;SDS011;6240;51.538;7.696;2022-08-01T00:14:33;13.05;;;11.70;;
12350;SDS011;6240;51.538;7.696;2022-08-01T00:17:01;13.30;;;11.90;;
12350;SDS011;6240;51.538;7.696;2022-08-01T00:19:28;13.00;;;11.65;;
12350;SDS011;6240;51.538;7.696;2022-08-01T00:21:55;12.30;;;11.07;;
12350;SDS011;6240;51.538;7.696;2022-08-01T00:24:24;13.02;;;11.73;;
12350;SDS011;6240;51.538;7.696;2022-08-01T00:26:51;13.90;;;12.60;;
12350;SDS011;6240;51.538;7.696;2022-08-01T00:29:18;13.55;;;12.25;;
12350;SDS011;6240;51.538;7.696;2022-08-01T00:31:45;14.40;;;12.90;;
12350;SDS011;6240;51.538;7.696;2022-08-01T00:34:12;16.65;;;12.90;;
12350;SDS011;6240;51.538;7.696;2022-08-01T00:36:40;15.07;;;13.68;;
12350;SDS011;6240;51.538;7.696;2022-08-01T00:39:07;15.07;;;13.68;;
12350;SDS011;6240;51.538;7.696;2022-08-01T00:41:38;15.15;;;13.68;;
12350;SDS011;6240;51.538;7.696;2022-08-01T00:44:05;16.65;;;15.25;;
12350;SDS011;6240;51.538;7.696;2022-08-01T00:46:33;17.90;;;16.00;;
12350;SDS011;6240;51.538;7.696;2022-08-01T00:49:02;17.80;;;16.20;;
12350;SDS011;6240;51.538;7.696;2022-08-01T00:51:29;17.08;;;15.38;;
12350;SDS011;6240;51.538;7.696;2022-08-01T00:53:56;17.95;;;16.15;;
12350;SDS011;6240;51.538;7.696;2022-08-01T00:56:24;19.00;;;17.17;;
12350;SDS011;6240;51.538;7.696;2022-08-01T00:58:53;19.02;;;17.30;;
12350;SDS011;6240;51.538;7.696;2022-08-01T01:01:21;17.85;;;16.08;;
12350;SDS011;6240;51.538;7.696;2022-08-01T01:03:48;18.75;;;16.95;;
12350;SDS011;6240;51.538;7.696;2022-08-01T01:06:23;18.85;;;17.15;;
12350;SDS011;6240;51.538;7.696;2022-08-01T01:08:53;19.05;;;17.35;;
12350;SDS011;6240;51.538;7.696;2022-08-01T01:11:24;19.02;;;17.33;;
12350;SDS011;6240;51.538;7.696;2022-08-01T01:13:56;19.77;;;18.00;;
12350;SDS011;6240;51.538;7.696;2022-08-01T01:16:24;18.67;;;17.00;;
12350;SDS011;6240;51.538;7.696;2022-08-01T01:18:53;21.27;;;19.25;;
12350;SDS011;6240;51.538;7.696;2022-08-01T01:21:27;21.55;;;19.55;;
12350;SDS011;6240;51.538;7.696;2022-08-01T01:23:59;23.42;;;21.30;;
12350;SDS011;6240;51.538;7.696;2022-08-01T01:26:33;24.10;;;21.80;;
12350;SDS011;6240;51.538;7.696;2022-08-01T01:29:06;23.95;;;21.85;;
12350;SDS011;6240;51.538;7.696;2022-08-01T01:31:36;25.50;;;23.00;;
12350;SDS011;6240;51.538;7.696;2022-08-01T01:34:05;23.90;;;21.70;;
12350;SDS011;6240;51.538;7.696;2022-08-01T01:36:34;25.70;;;23.20;;
12350;SDS011;6240;51.538;7.696;2022-08-01T01:39:03;23.42;;;21.20;;
12350;SDS011;6240;51.538;7.696;2022-08-01T01:41:33;22.52;;;20.63;;
12350;SDS011;6240;51.538;7.696;2022-08-01T01:44:02;23.63;;;21.33;;
12350;SDS011;6240;51.538;7.696;2022-08-01T01:46:31;22.33;;;20.13;;
12350;SDS011;6240;51.538;7.696;2022-08-01T01:48:59;23.02;;;20.83;;
12350;SDS011;6240;51.538;7.696;2022-08-01T01:51:27;23.27;;;21.05;;
12350;SDS011;6240;51.538;7.696;2022-08-01T01:53:55;24.65;;;22.25;;
12350;SDS011;6240;51.538;7.696;2022-08-01T01:56:22;22.95;;;20.75;;
12350;SDS011;6240;51.538;7.696;2022-08-01T01:58:50;22.38;;;20.35;;
12350;SDS011;6240;51.538;7.696;2022-08-01T02:01:18;22.30;;;20.08;;
12350;SDS011;6240;51.538;7.696;2022-08-01T02:03:47;21.92;;;19.63;;
12350;SDS011;6240;51.538;7.696;2022-08-01T02:06:15;21.25;;;19.17;;
12350;SDS011;6240;51.538;7.696;2022-08-01T02:08:43;20.20;;;18.10;;
12350;SDS011;6240;51.538;7.696;2022-08-01T02:11:11;20.98;;;18.98;;
12350;SDS011;6240;51.538;7.696;2022-08-01T02:13:46;20.95;;;18.90;;
12350;SDS011;6240;51.538;7.696;2022-08-01T02:16:13;20.52;;;18.42;;
12350;SDS011;6240;51.538;7.696;2022-08-01T02:18:42;20.83;;;18.73;;
12350;SDS011;6240;51.538;7.696;2022-08-01T02:21:12;21.65;;;19.33;;
12350;SDS011;6240;51.538;7.696;2022-08-01T02:23:40;19.13;;;17.42;;
12350;SDS011;6240;51.538;7.696;2022-08-01T02:26:09;20.02;;;18.02;;
12350;SDS011;6240;51.538;7.696;2022-08-01T02:28:38;20.30;;;18.17;;
12350;SDS011;6240;51.538;7.696;2022-08-01T02:31:10;21.90;;;19.67;;
12350;SDS011;6240;51.538;7.696;2022-08-01T02:33:40;21.40;;;18.08;;
12350;SDS011;6240;51.538;7.696;2022-08-01T02:36:08;20.25;;;18.13;;
12350;SDS011;6240;51.538;7.696;2022-08-01T02:38:40;19.65;;;17.58;;
12350;SDS011;6240;51.538;7.696;2022-08-01T02:41:09;19.52;;;17.73;;
12350;SDS011;6240;51.538;7.696;2022-08-01T02:43:38;20.80;;;18.65;;
12350;SDS011;6240;51.538;7.696;2022-08-01T02:46:07;19.95;;;17.85;;
12350;SDS011;6240;51.538;7.696;2022-08-01T02:48:35;20.67;;;18.70;;
12350;SDS011;6240;51.538;7.696;2022-08-01T02:51:03;20.88;;;17.65;;
12350;SDS011;6240;51.538;7.696;2022-08-01T02:53:31;19.48;;;17.52;;
12350;SDS011;6240;51.538;7.696;2022-08-01T02:56:03;19.65;;;17.60;;
12350;SDS011;6240;51.538;7.696;2022-08-01T02:58:31;18.90;;;17.08;;
12350;SDS011;6240;51.538;7.696;2022-08-01T03:00:58;19.80;;;17.17;;
12350;SDS011;6240;51.538;7.696;2022-08-01T03:03:26;19.48;;;17.38;;
12350;SDS011;6240;51.538;7.696;2022-08-01T03:05:53;17.95;;;16.15;;
12350;SDS011;6240;51.538;7.696;2022-08-01T03:08:21;18.38;;;16.50;;
12350;SDS011;6240;51.538;7.696;2022-08-01T03:10:49;17.92;;;16.02;;
12350;SDS011;6240;51.538;7.696;2022-08-01T03:13:18;17.50;;;15.65;;
12350;SDS011;6240;51.538;7.696;2022-08-01T03:15:47;18.77;;;16.75;;
12350;SDS011;6240;51.538;7.696;2022-08-01T03:18:14;18.10;;;16.30;;
12350;SDS011;6240;51.538;7.696;2022-08-01T03:20:42;18.58;;;16.77;;
12350;SDS011;6240;51.538;7.696;2022-08-01T03:23:10;16.92;;;15.13;;
12350;SDS011;6240;51.538;7.696;2022-08-01T03:25:38;16.95;;;15.20;;
12350;SDS011;6240;51.538;7.696;2022-08-01T03:28:07;17.23;;;15.52;;
12350;SDS011;6240;51.538;7.696;2022-08-01T03:30:38;17.52;;;15.70;;
12350;SDS011;6240;51.538;7.696;2022-08-01T03:33:06;16.58;;;14.98;;
12350;SDS011;6240;51.538;7.696;2022-08-01T03:35:34;18.02;;;16.08;;
12350;SDS011;6240;51.538;7.696;2022-08-01T03:38:03;18.30;;;16.35;;
12350;SDS011;6240;51.538;7.696;2022-08-01T03:40:35;20.35;;;16.35;;
12350;SDS011;6240;51.538;7.696;2022-08-01T03:43:05;18.63;;;15.73;;
12350;SDS011;6240;51.538;7.696;2022-08-01T03:45:34;18.77;;;16.77;;
12350;SDS011;6240;51.538;7.696;2022-08-01T03:48:05;18.13;;;15.77;;
12350;SDS011;6240;51.538;7.696;2022-08-01T03:50:41;16.90;;;15.18;;
12350;SDS011;6240;51.538;7.696;2022-08-01T03:53:10;16.75;;;15.15;;
12350;SDS011;6240;51.538;7.696;2022-08-01T03:55:38;17.33;;;15.50;;
12350;SDS011;6240;51.538;7.696;2022-08-01T03:58:06;16.20;;;14.48;;
12350;SDS011;6240;51.538;7.696;2022-08-01T04:00:33;18.17;;;16.27;;
12350;SDS011;6240;51.538;7.696;2022-08-01T04:03:05;19.13;;;15.68;;
12350;SDS011;6240;51.538;7.696;2022-08-01T04:05:34;19.83;;;14.70;;
12350;SDS011;6240;51.538;7.696;2022-08-01T04:08:03;16.88;;;15.07;;
12350;SDS011;6240;51.538;7.696;2022-08-01T04:10:31;18.83;;;15.02;;
12350;SDS011;6240;51.538;7.696;2022-08-01T04:12:58;16.83;;;14.95;;
12350;SDS011;6240;51.538;7.696;2022-08-01T04:15:25;16.60;;;15.00;;
12350;SDS011;6240;51.538;7.696;2022-08-01T04:17:53;14.95;;;13.35;;
12350;SDS011;6240;51.538;7.696;2022-08-01T04:20:23;14.77;;;13.27;;
12350;SDS011;6240;51.538;7.696;2022-08-01T04:22:50;16.05;;;13.60;;
12350;SDS011;6240;51.538;7.696;2022-08-01T04:25:19;15.32;;;13.77;;
12350;SDS011;6240;51.538;7.696;2022-08-01T04:27:49;17.45;;;13.88;;
12350;SDS011;6240;51.538;7.696;2022-08-01T04:30:19;15.65;;;13.32;;
12350;SDS011;6240;51.538;7.696;2022-08-01T04:32:49;16.90;;;13.68;;
12350;SDS011;6240;51.538;7.696;2022-08-01T04:35:19;15.30;;;13.65;;
12350;SDS011;6240;51.538;7.696;2022-08-01T04:37:48;13.48;;;12.15;;
12350;SDS011;6240;51.538;7.696;2022-08-01T04:40:16;11.27;;;10.13;;
12350;SDS011;6240;51.538;7.696;2022-08-01T04:42:46;12.85;;;9.70;;
12350;SDS011;6240;51.538;7.696;2022-08-01T04:45:14;11.75;;;9.30;;
12350;SDS011;6240;51.538;7.696;2022-08-01T04:47:42;9.18;;;7.88;;
12350;SDS011;6240;51.538;7.696;2022-08-01T04:50:10;10.40;;;7.75;;
12350;SDS011;6240;51.538;7.696;2022-08-01T04:52:37;8.07;;;7.28;;
12350;SDS011;6240;51.538;7.696;2022-08-01T04:55:09;8.07;;;7.28;;
12350;SDS011;6240;51.538;7.696;2022-08-01T04:57:37;7.85;;;6.95;;
12350;SDS011;6240;51.538;7.696;2022-08-01T05:00:07;7.50;;;6.70;;
12350;SDS011;6240;51.538;7.696;2022-08-01T05:02:37;6.55;;;5.93;;
12350;SDS011;6240;51.538;7.696;2022-08-01T05:05:07;7.85;;;6.68;;
12350;SDS011;6240;51.538;7.696;2022-08-01T05:07:35;7.15;;;6.10;;
12350;SDS011;6240;51.538;7.696;2022-08-01T05:10:03;9.52;;;6.32;;
12350;SDS011;6240;51.538;7.696;2022-08-01T05:12:32;9.27;;;6.40;;
12350;SDS011;6240;51.538;7.696;2022-08-01T05:14:59;8.82;;;5.78;;
12350;SDS011;6240;51.538;7.696;2022-08-01T05:17:27;7.65;;;6.28;;
12350;SDS011;6240;51.538;7.696;2022-08-01T05:19:54;6.88;;;6.18;;
12350;SDS011;6240;51.538;7.696;2022-08-01T05:22:23;7.10;;;6.03;;
12350;SDS011;6240;51.538;7.696;2022-08-01T05:24:52;6.80;;;6.20;;
12350;SDS011;6240;51.538;7.696;2022-08-01T05:27:21;6.47;;;5.63;;
12350;SDS011;6240;51.538;7.696;2022-08-01T05:29:51;6.60;;;5.80;;
12350;SDS011;6240;51.538;7.696;2022-08-01T05:32:19;9.88;;;7.18;;
12350;SDS011;6240;51.538;7.696;2022-08-01T05:34:47;7.57;;;6.28;;
12350;SDS011;6240;51.538;7.696;2022-08-01T05:37:18;6.53;;;5.78;;
12350;SDS011;6240;51.538;7.696;2022-08-01T05:39:47;6.82;;;5.80;;
12350;SDS011;6240;51.538;7.696;2022-08-01T05:42:18;7.40;;;6.10;;
12350;SDS011;6240;51.538;7.696;2022-08-01T05:44:46;9.95;;;6.35;;
12350;SDS011;6240;51.538;7.696;2022-08-01T05:47:17;9.50;;;7.85;;
12350;SDS011;6240;51.538;7.696;2022-08-01T05:49:44;7.00;;;6.30;;
12350;SDS011;6240;51.538;7.696;2022-08-01T05:52:12;8.05;;;6.32;;
12350;SDS011;6240;51.538;7.696;2022-08-01T05:54:40;8.45;;;7.57;;
12350;SDS011;6240;51.538;7.696;2022-08-01T05:57:11;8.05;;;7.25;;
12350;SDS011;6240;51.538;7.696;2022-08-01T05:59:41;8.23;;;7.10;;
12350;SDS011;6240;51.538;7.696;2022-08-01T06:02:08;9.43;;;6.95;;
12350;SDS011;6240;51.538;7.696;2022-08-01T06:04:36;7.45;;;5.82;;
12350;SDS011;6240;51.538;7.696;2022-08-01T06:07:05;6.18;;;5.57;;
12350;SDS011;6240;51.538;7.696;2022-08-01T06:09:32;6.57;;;5.00;;
12350;SDS011;6240;51.538;7.696;2022-08-01T06:11:59;8.13;;;5.93;;
12350;SDS011;6240;51.538;7.696;2022-08-01T06:14:26;7.20;;;5.50;;
12350;SDS011;6240;51.538;7.696;2022-08-01T06:16:54;6.05;;;5.40;;
12350;SDS011;6240;51.538;7.696;2022-08-01T06:19:22;5.70;;;5.10;;
12350;SDS011;6240;51.538;7.696;2022-08-01T06:21:52;6.60;;;5.07;;
12350;SDS011;6240;51.538;7.696;2022-08-01T06:24:19;5.85;;;5.25;;
12350;SDS011;6240;51.538;7.696;2022-08-01T06:26:48;6.35;;;4.90;;
12350;SDS011;6240;51.538;7.696;2022-08-01T06:29:16;5.78;;;4.43;;
12350;SDS011;6240;51.538;7.696;2022-08-01T06:31:44;5.63;;;4.07;;
12350;SDS011;6240;51.538;7.696;2022-08-01T06:34:15;5.05;;;4.00;;
12350;SDS011;6240;51.538;7.696;2022-08-01T06:36:44;6.53;;;3.70;;
12350;SDS011;6240;51.538;7.696;2022-08-01T06:39:15;4.00;;;3.60;;
12350;SDS011;6240;51.538;7.696;2022-08-01T06:41:44;4.93;;;4.47;;
12350;SDS011;6240;51.538;7.696;2022-08-01T06:44:12;5.25;;;4.50;;
12350;SDS011;6240;51.538;7.696;2022-08-01T06:46:39;6.43;;;4.80;;
12350;SDS011;6240;51.538;7.696;2022-08-01T06:49:06;4.75;;;4.28;;
12350;SDS011;6240;51.538;7.696;2022-08-01T06:51:33;6.00;;;4.10;;
12350;SDS011;6240;51.538;7.696;2022-08-01T06:54:01;4.60;;;4.05;;
12350;SDS011;6240;51.538;7.696;2022-08-01T06:56:29;6.78;;;4.82;;
12350;SDS011;6240;51.538;7.696;2022-08-01T06:58:57;4.50;;;4.10;;
12350;SDS011;6240;51.538;7.696;2022-08-01T07:01:26;5.55;;;4.07;;
12350;SDS011;6240;51.538;7.696;2022-08-01T07:03:53;5.13;;;4.63;;
12350;SDS011;6240;51.538;7.696;2022-08-01T07:06:21;6.43;;;4.80;;
12350;SDS011;6240;51.538;7.696;2022-08-01T07:08:48;5.25;;;4.70;;
12350;SDS011;6240;51.538;7.696;2022-08-01T07:11:16;6.70;;;4.82;;
12350;SDS011;6240;51.538;7.696;2022-08-01T07:13:51;5.50;;;4.63;;
12350;SDS011;6240;51.538;7.696;2022-08-01T07:16:18;7.78;;;6.55;;
12350;SDS011;6240;51.538;7.696;2022-08-01T07:18:45;7.15;;;6.28;;
12350;SDS011;6240;51.538;7.696;2022-08-01T07:21:12;7.40;;;6.70;;
12350;SDS011;6240;51.538;7.696;2022-08-01T07:23:40;7.10;;;6.43;;
12350;SDS011;6240;51.538;7.696;2022-08-01T07:26:07;10.85;;;7.72;;
12350;SDS011;6240;51.538;7.696;2022-08-01T07:28:34;8.48;;;6.82;;
12350;SDS011;6240;51.538;7.696;2022-08-01T07:31:02;7.80;;;6.68;;
12350;SDS011;6240;51.538;7.696;2022-08-01T07:33:30;6.45;;;5.85;;
12350;SDS011;6240;51.538;7.696;2022-08-01T07:35:57;4.45;;;3.90;;
12350;SDS011;6240;51.538;7.696;2022-08-01T07:38:24;5.93;;;5.43;;
12350;SDS011;6240;51.538;7.696;2022-08-01T07:40:54;6.75;;;5.18;;
12350;SDS011;6240;51.538;7.696;2022-08-01T07:43:24;5.68;;;5.03;;
12350;SDS011;6240;51.538;7.696;2022-08-01T07:45:53;5.57;;;4.60;;
12350;SDS011;6240;51.538;7.696;2022-08-01T07:48:21;5.65;;;4.90;;
12350;SDS011;6240;51.538;7.696;2022-08-01T07:50:50;5.90;;;4.40;;
12350;SDS011;6240;51.538;7.696;2022-08-01T07:53:17;4.97;;;4.25;;
12350;SDS011;6240;51.538;7.696;2022-08-01T07:55:45;4.72;;;4.32;;
12350;SDS011;6240;51.538;7.696;2022-08-01T07:58:13;5.72;;;4.03;;
12350;SDS011;6240;51.538;7.696;2022-08-01T08:00:43;4.63;;;4.22;;
12350;SDS011;6240;51.538;7.696;2022-08-01T08:03:13;5.50;;;3.72;;
12350;SDS011;6240;51.538;7.696;2022-08-01T08:05:45;4.60;;;4.20;;
12350;SDS011;6240;51.538;7.696;2022-08-01T08:08:12;4.40;;;4.07;;
12350;SDS011;6240;51.538;7.696;2022-08-01T08:10:41;4.78;;;4.32;;
12350;SDS011;6240;51.538;7.696;2022-08-01T08:13:10;4.95;;;4.40;;
12350;SDS011;6240;51.538;7.696;2022-08-01T08:15:39;4.90;;;4.43;;
12350;SDS011;6240;51.538;7.696;2022-08-01T08:18:06;6.32;;;4.60;;
12350;SDS011;6240;51.538;7.696;2022-08-01T08:20:33;7.53;;;5.55;;
12350;SDS011;6240;51.538;7.696;2022-08-01T08:23:02;4.95;;;4.38;;
12350;SDS011;6240;51.538;7.696;2022-08-01T08:25:49;4.63;;;4.22;;
12350;SDS011;6240;51.538;7.696;2022-08-01T08:28:16;4.88;;;4.47;;
12350;SDS011;6240;51.538;7.696;2022-08-01T08:30:46;4.90;;;4.30;;
12350;SDS011;6240;51.538;7.696;2022-08-01T08:33:13;4.53;;;4.13;;
12350;SDS011;6240;51.538;7.696;2022-08-01T08:35:41;4.68;;;4.22;;
12350;SDS011;6240;51.538;7.696;2022-08-01T08:38:13;4.15;;;3.78;;
12350;SDS011;6240;51.538;7.696;2022-08-01T08:40:43;6.32;;;3.80;;
12350;SDS011;6240;51.538;7.696;2022-08-01T08:43:13;4.63;;;4.20;;
12350;SDS011;6240;51.538;7.696;2022-08-01T08:45:47;4.53;;;4.10;;
12350;SDS011;6240;51.538;7.696;2022-08-01T08:48:16;7.60;;;4.57;;
12350;SDS011;6240;51.538;7.696;2022-08-01T08:50:44;5.13;;;4.63;;
12350;SDS011;6240;51.538;7.696;2022-08-01T08:53:14;5.10;;;4.60;;
12350;SDS011;6240;51.538;7.696;2022-08-01T08:55:42;5.20;;;4.70;;
12350;SDS011;6240;51.538;7.696;2022-08-01T08:58:09;5.57;;;4.53;;
12350;SDS011;6240;51.538;7.696;2022-08-01T09:00:38;5.35;;;4.57;;
12350;SDS011;6240;51.538;7.696;2022-08-01T09:03:07;4.70;;;4.30;;
12350;SDS011;6240;51.538;7.696;2022-08-01T09:05:36;4.10;;;3.40;;
12350;SDS011;6240;51.538;7.696;2022-08-01T09:08:06;5.55;;;5.05;;
12350;SDS011;6240;51.538;7.696;2022-08-01T09:10:38;5.18;;;4.68;;
12350;SDS011;6240;51.538;7.696;2022-08-01T09:13:09;4.85;;;4.35;;
12350;SDS011;6240;51.538;7.696;2022-08-01T09:15:42;6.88;;;4.68;;
12350;SDS011;6240;51.538;7.696;2022-08-01T09:18:29;4.88;;;3.97;;
12350;SDS011;6240;51.538;7.696;2022-08-01T09:21:12;5.28;;;3.90;;
12350;SDS011;6240;51.538;7.696;2022-08-01T09:23:40;4.07;;;3.67;;
12350;SDS011;6240;51.538;7.696;2022-08-01T09:26:10;5.30;;;4.75;;
12350;SDS011;6240;51.538;7.696;2022-08-01T09:28:38;4.72;;;4.32;;
12350;SDS011;6240;51.538;7.696;2022-08-01T09:31:06;4.40;;;4.03;;
12350;SDS011;6240;51.538;7.696;2022-08-01T09:33:52;5.00;;;4.50;;
12350;SDS011;6240;51.538;7.696;2022-08-01T09:36:20;3.25;;;3.03;;
12350;SDS011;6240;51.538;7.696;2022-08-01T09:38:47;3.88;;;3.58;;
12350;SDS011;6240;51.538;7.696;2022-08-01T09:41:16;4.03;;;3.65;;
12350;SDS011;6240;51.538;7.696;2022-08-01T09:43:47;3.70;;;3.40;;
12350;SDS011;6240;51.538;7.696;2022-08-01T09:46:15;4.45;;;3.78;;
12350;SDS011;6240;51.538;7.696;2022-08-01T09:48:54;3.72;;;3.42;;
12350;SDS011;6240;51.538;7.696;2022-08-01T09:51:27;3.83;;;3.42;;
12350;SDS011;6240;51.538;7.696;2022-08-01T09:53:55;3.20;;;2.90;;
12350;SDS011;6240;51.538;7.696;2022-08-01T09:56:23;3.33;;;3.10;;
12350;SDS011;6240;51.538;7.696;2022-08-01T09:58:55;3.28;;;2.97;;
12350;SDS011;6240;51.538;7.696;2022-08-01T10:01:23;3.40;;;3.10;;
12350;SDS011;6240;51.538;7.696;2022-08-01T10:04:06;3.00;;;2.80;;
12350;SDS011;6240;51.538;7.696;2022-08-01T10:06:35;3.95;;;2.92;;
12350;SDS011;6240;51.538;7.696;2022-08-01T10:09:02;4.07;;;2.88;;
12350;SDS011;6240;51.538;7.696;2022-08-01T10:11:31;2.80;;;2.30;;
12350;SDS011;6240;51.538;7.696;2022-08-01T10:13:58;2.08;;;1.98;;
12350;SDS011;6240;51.538;7.696;2022-08-01T10:16:26;1.77;;;1.60;;
12350;SDS011;6240;51.538;7.696;2022-08-01T10:18:53;1.95;;;1.85;;
12350;SDS011;6240;51.538;7.696;2022-08-01T10:21:21;2.95;;;2.00;;
12350;SDS011;6240;51.538;7.696;2022-08-01T10:23:50;3.10;;;1.63;;
12350;SDS011;6240;51.538;7.696;2022-08-01T10:26:19;2.05;;;1.85;;
12350;SDS011;6240;51.538;7.696;2022-08-01T10:28:49;1.50;;;1.40;;
12350;SDS011;6240;51.538;7.696;2022-08-01T10:31:18;2.80;;;2.40;;
12350;SDS011;6240;51.538;7.696;2022-08-01T10:33:46;1.40;;;1.30;;
12350;SDS011;6240;51.538;7.696;2022-08-01T10:36:13;2.28;;;1.52;;
12350;SDS011;6240;51.538;7.696;2022-08-01T10:38:40;1.27;;;1.17;;
12350;SDS011;6240;51.538;7.696;2022-08-01T10:41:09;2.25;;;1.35;;
12350;SDS011;6240;51.538;7.696;2022-08-01T10:43:40;1.50;;;1.30;;
12350;SDS011;6240;51.538;7.696;2022-08-01T10:46:09;1.25;;;1.15;;
12350;SDS011;6240;51.538;7.696;2022-08-01T10:48:39;1.33;;;1.23;;
12350;SDS011;6240;51.538;7.696;2022-08-01T10:51:08;1.33;;;1.20;;
12350;SDS011;6240;51.538;7.696;2022-08-01T10:53:36;3.22;;;1.40;;
12350;SDS011;6240;51.538;7.696;2022-08-01T10:56:03;2.00;;;1.23;;
12350;SDS011;6240;51.538;7.696;2022-08-01T10:58:33;1.35;;;1.13;;
12350;SDS011;6240;51.538;7.696;2022-08-01T11:01:19;1.20;;;1.02;;
12350;SDS011;6240;51.538;7.696;2022-08-01T11:03:56;1.38;;;1.27;;
12350;SDS011;6240;51.538;7.696;2022-08-01T11:06:24;1.63;;;0.88;;
12350;SDS011;6240;51.538;7.696;2022-08-01T11:08:53;2.65;;;0.57;;
12350;SDS011;6240;51.538;7.696;2022-08-01T11:11:21;1.60;;;0.60;;
12350;SDS011;6240;51.538;7.696;2022-08-01T11:14:01;1.00;;;0.90;;
12350;SDS011;6240;51.538;7.696;2022-08-01T11:16:34;1.65;;;0.68;;
12350;SDS011;6240;51.538;7.696;2022-08-01T11:19:01;0.70;;;0.63;;
12350;SDS011;6240;51.538;7.696;2022-08-01T11:24:15;0.80;;;0.80;;
12350;SDS011;6240;51.538;7.696;2022-08-01T11:26:51;1.27;;;0.63;;
12350;SDS011;6240;51.538;7.696;2022-08-01T11:29:39;0.75;;;0.73;;
12350;SDS011;6240;51.538;7.696;2022-08-01T11:34:55;0.90;;;0.90;;
12350;SDS011;6240;51.538;7.696;2022-08-01T11:37:23;0.80;;;0.80;;
12350;SDS011;6240;51.538;7.696;2022-08-01T11:42:35;2.05;;;0.90;;
12350;SDS011;6240;51.538;7.696;2022-08-01T11:45:04;0.70;;;0.70;;
12350;SDS011;6240;51.538;7.696;2022-08-01T11:47:44;0.85;;;0.70;;
12350;SDS011;6240;51.538;7.696;2022-08-01T11:53:06;1.42;;;0.70;;
12350;SDS011;6240;51.538;7.696;2022-08-01T11:55:33;0.88;;;0.80;;
12350;SDS011;6240;51.538;7.696;2022-08-01T11:58:01;1.35;;;0.65;;
12350;SDS011;6240;51.538;7.696;2022-08-01T12:00:30;1.17;;;0.60;;
12350;SDS011;6240;51.538;7.696;2022-08-01T12:02:58;1.05;;;0.57;;
12350;SDS011;6240;51.538;7.696;2022-08-01T12:05:26;0.60;;;0.60;;
12350;SDS011;6240;51.538;7.696;2022-08-01T12:07:54;1.00;;;0.60;;
12350;SDS011;6240;51.538;7.696;2022-08-01T12:10:22;0.40;;;0.40;;
12350;SDS011;6240;51.538;7.696;2022-08-01T12:12:50;0.55;;;0.52;;
12350;SDS011;6240;51.538;7.696;2022-08-01T12:15:18;0.65;;;0.50;;
12350;SDS011;6240;51.538;7.696;2022-08-01T12:17:50;0.90;;;0.70;;
12350;SDS011;6240;51.538;7.696;2022-08-01T12:20:20;0.50;;;0.50;;
12350;SDS011;6240;51.538;7.696;2022-08-01T12:22:53;0.68;;;0.68;;
12350;SDS011;6240;51.538;7.696;2022-08-01T12:25:23;1.83;;;0.80;;
12350;SDS011;6240;51.538;7.696;2022-08-01T12:27:50;0.80;;;0.60;;
12350;SDS011;6240;51.538;7.696;2022-08-01T12:30:18;0.60;;;0.60;;
12350;SDS011;6240;51.538;7.696;2022-08-01T12:32:49;1.08;;;0.65;;
12350;SDS011;6240;51.538;7.696;2022-08-01T12:35:16;0.70;;;0.60;;
12350;SDS011;6240;51.538;7.696;2022-08-01T12:37:46;0.80;;;0.80;;
12350;SDS011;6240;51.538;7.696;2022-08-01T12:40:16;0.82;;;0.73;;
12350;SDS011;6240;51.538;7.696;2022-08-01T12:42:45;2.17;;;0.70;;
12350;SDS011;6240;51.538;7.696;2022-08-01T12:45:13;0.75;;;0.70;;
12350;SDS011;6240;51.538;7.696;2022-08-01T12:47:41;1.45;;;0.70;;
12350;SDS011;6240;51.538;7.696;2022-08-01T12:50:12;0.60;;;0.60;;
12350;SDS011;6240;51.538;7.696;2022-08-01T12:52:40;0.50;;;0.50;;
12350;SDS011;6240;51.538;7.696;2022-08-01T12:55:11;1.27;;;0.60;;
12350;SDS011;6240;51.538;7.696;2022-08-01T12:57:39;0.70;;;0.70;;
12350;SDS011;6240;51.538;7.696;2022-08-01T13:00:08;0.70;;;0.60;;
12350;SDS011;6240;51.538;7.696;2022-08-01T13:02:35;3.50;;;0.70;;
12350;SDS011;6240;51.538;7.696;2022-08-01T13:05:05;0.90;;;0.80;;
12350;SDS011;6240;51.538;7.696;2022-08-01T13:07:40;1.30;;;0.80;;
12350;SDS011;6240;51.538;7.696;2022-08-01T13:10:10;4.50;;;0.88;;
12350;SDS011;6240;51.538;7.696;2022-08-01T13:12:38;1.08;;;0.80;;
12350;SDS011;6240;51.538;7.696;2022-08-01T13:15:22;1.25;;;0.80;;
12350;SDS011;6240;51.538;7.696;2022-08-01T13:17:51;0.80;;;0.80;;
12350;SDS011;6240;51.538;7.696;2022-08-01T13:20:23;1.10;;;0.90;;
12350;SDS011;6240;51.538;7.696;2022-08-01T13:22:52;1.10;;;1.00;;
12350;SDS011;6240;51.538;7.696;2022-08-01T13:25:19;0.80;;;0.80;;
12350;SDS011;6240;51.538;7.696;2022-08-01T13:27:46;2.05;;;0.90;;
12350;SDS011;6240;51.538;7.696;2022-08-01T13:30:14;1.98;;;1.08;;
12350;SDS011;6240;51.538;7.696;2022-08-01T13:32:42;1.90;;;1.00;;
12350;SDS011;6240;51.538;7.696;2022-08-01T13:35:10;1.27;;;0.90;;
12350;SDS011;6240;51.538;7.696;2022-08-01T13:37:38;0.90;;;0.90;;
12350;SDS011;6240;51.538;7.696;2022-08-01T13:40:09;2.67;;;1.08;;
12350;SDS011;6240;51.538;7.696;2022-08-01T13:42:36;2.10;;;0.98;;
12350;SDS011;6240;51.538;7.696;2022-08-01T13:45:04;5.22;;;1.48;;
12350;SDS011;6240;51.538;7.696;2022-08-01T13:47:35;1.38;;;0.80;;
12350;SDS011;6240;51.538;7.696;2022-08-01T13:50:02;0.80;;;0.80;;
12350;SDS011;6240;51.538;7.696;2022-08-01T13:52:30;1.15;;;0.77;;
12350;SDS011;6240;51.538;7.696;2022-08-01T13:54:57;2.08;;;1.00;;
12350;SDS011;6240;51.538;7.696;2022-08-01T13:57:28;0.80;;;0.73;;
12350;SDS011;6240;51.538;7.696;2022-08-01T13:59:56;0.93;;;0.70;;
12350;SDS011;6240;51.538;7.696;2022-08-01T14:02:24;0.85;;;0.77;;
12350;SDS011;6240;51.538;7.696;2022-08-01T14:04:52;0.85;;;0.70;;
12350;SDS011;6240;51.538;7.696;2022-08-01T14:07:19;1.05;;;0.95;;
12350;SDS011;6240;51.538;7.696;2022-08-01T14:09:52;1.80;;;1.17;;
12350;SDS011;6240;51.538;7.696;2022-08-01T14:12:20;1.15;;;1.02;;
12350;SDS011;6240;51.538;7.696;2022-08-01T14:14:49;1.73;;;1.10;;
12350;SDS011;6240;51.538;7.696;2022-08-01T14:17:16;1.80;;;1.20;;
12350;SDS011;6240;51.538;7.696;2022-08-01T14:19:45;2.08;;;1.27;;
12350;SDS011;6240;51.538;7.696;2022-08-01T14:22:12;1.75;;;1.25;;
12350;SDS011;6240;51.538;7.696;2022-08-01T14:24:39;1.40;;;1.10;;
12350;SDS011;6240;51.538;7.696;2022-08-01T14:27:07;1.90;;;1.20;;
12350;SDS011;6240;51.538;7.696;2022-08-01T14:29:35;3.30;;;1.30;;
12350;SDS011;6240;51.538;7.696;2022-08-01T14:32:03;2.83;;;1.10;;
12350;SDS011;6240;51.538;7.696;2022-08-01T14:34:31;4.13;;;1.30;;
12350;SDS011;6240;51.538;7.696;2022-08-01T14:36:58;3.03;;;1.30;;
12350;SDS011;6240;51.538;7.696;2022-08-01T14:39:25;1.70;;;1.20;;
12350;SDS011;6240;51.538;7.696;2022-08-01T14:41:53;2.40;;;1.00;;
12350;SDS011;6240;51.538;7.696;2022-08-01T14:44:20;1.02;;;0.80;;
12350;SDS011;6240;51.538;7.696;2022-08-01T14:46:47;2.38;;;1.15;;
12350;SDS011;6240;51.538;7.696;2022-08-01T14:49:16;3.15;;;1.30;;
12350;SDS011;6240;51.538;7.696;2022-08-01T14:51:46;2.58;;;1.00;;
12350;SDS011;6240;51.538;7.696;2022-08-01T14:54:13;1.42;;;1.33;;
12350;SDS011;6240;51.538;7.696;2022-08-01T14:56:40;1.67;;;1.30;;
12350;SDS011;6240;51.538;7.696;2022-08-01T14:59:07;1.23;;;1.13;;
12350;SDS011;6240;51.538;7.696;2022-08-01T15:01:35;1.38;;;1.10;;
12350;SDS011;6240;51.538;7.696;2022-08-01T15:04:02;2.33;;;1.50;;
12350;SDS011;6240;51.538;7.696;2022-08-01T15:06:30;1.38;;;1.20;;
12350;SDS011;6240;51.538;7.696;2022-08-01T15:08:57;1.30;;;1.20;;
12350;SDS011;6240;51.538;7.696;2022-08-01T15:11:24;2.15;;;1.40;;
12350;SDS011;6240;51.538;7.696;2022-08-01T15:13:52;1.48;;;1.35;;
12350;SDS011;6240;51.538;7.696;2022-08-01T15:16:33;1.55;;;1.20;;